createdAt,value
2019-04-30T00:00:10.152Z,3.62
2019-04-30T00:02:42.046Z,3.95
2019-04-30T00:05:15.210Z,4.45
2019-04-30T00:07:41.327Z,4.05
2019-04-30T00:10:10.483Z,2.90
2019-04-30T00:12:39.698Z,3.50
2019-04-30T00:15:10.890Z,4.17
2019-04-30T00:17:39.088Z,3.58
2019-04-30T00:20:07.910Z,4.15
2019-04-30T00:22:41.267Z,4.22
2019-04-30T00:25:07.346Z,3.98
2019-04-30T00:27:36.161Z,4.30
2019-04-30T00:30:09.000Z,3.62
2019-04-30T00:32:43.468Z,4.12
2019-04-30T00:35:11.822Z,4.15
2019-04-30T00:37:38.526Z,4.50
2019-04-30T00:40:07.383Z,4.37
2019-04-30T00:42:36.371Z,3.95
2019-04-30T00:45:10.029Z,4.05
2019-04-30T00:47:39.438Z,4.70
2019-04-30T00:50:10.236Z,3.65
2019-04-30T00:52:39.097Z,4.62
2019-04-30T00:55:09.336Z,3.90
2019-04-30T00:57:43.821Z,3.67
2019-04-30T01:00:12.177Z,4.70
2019-04-30T01:03:05.232Z,4.22
2019-04-30T01:05:31.533Z,3.35
2019-04-30T01:08:00.342Z,4.35
2019-04-30T01:10:29.158Z,4.42
2019-04-30T01:13:01.804Z,3.45
2019-04-30T01:15:29.170Z,4.58
2019-04-30T01:17:59.370Z,4.35
2019-04-30T01:20:32.668Z,4.00
2019-04-30T01:23:03.153Z,3.27
2019-04-30T01:25:30.956Z,3.35
2019-04-30T01:27:59.936Z,4.50
2019-04-30T01:30:28.736Z,4.05
2019-04-30T01:33:01.051Z,2.85
2019-04-30T01:35:31.495Z,4.75
2019-04-30T01:37:59.623Z,4.60
2019-04-30T01:40:28.903Z,4.87
2019-04-30T01:42:59.317Z,4.03
2019-04-30T01:45:31.601Z,4.75
2019-04-30T01:48:05.325Z,5.08
2019-04-30T01:50:29.284Z,3.10
2019-04-30T01:52:59.121Z,4.55
2019-04-30T01:55:45.057Z,4.37
2019-04-30T01:58:19.389Z,4.05
2019-04-30T02:00:49.919Z,4.50
2019-04-30T02:03:19.345Z,4.25
2019-04-30T02:05:49.838Z,4.95
2019-04-30T02:08:19.549Z,3.77
2019-04-30T02:10:49.198Z,4.42
2019-04-30T02:13:19.072Z,2.92
2019-04-30T02:15:49.262Z,4.17
2019-04-30T02:18:19.532Z,3.35
2019-04-30T02:20:49.717Z,5.12
2019-04-30T02:23:19.606Z,3.42
2019-04-30T02:25:49.115Z,4.60
2019-04-30T02:28:19.019Z,3.77
2019-04-30T02:30:50.515Z,3.83
2019-04-30T02:33:19.822Z,4.78
2019-04-30T02:35:56.619Z,5.20
2019-04-30T02:38:39.494Z,4.53
2019-04-30T02:41:09.971Z,3.52
2019-04-30T02:43:42.106Z,4.85
2019-04-30T02:46:13.189Z,4.62
2019-04-30T02:48:43.318Z,3.58
2019-04-30T02:51:14.026Z,3.75
2019-04-30T02:54:03.647Z,5.12
2019-04-30T02:56:32.999Z,5.10
2019-04-30T02:59:03.770Z,3.95
2019-04-30T03:01:32.302Z,4.80
2019-04-30T03:04:01.196Z,4.97
2019-04-30T03:06:30.580Z,4.58
2019-04-30T03:09:01.160Z,4.53
2019-04-30T03:11:30.446Z,3.70
2019-04-30T03:13:59.560Z,3.42
2019-04-30T03:16:30.420Z,2.90
2019-04-30T03:19:03.917Z,3.55
2019-04-30T03:21:43.249Z,4.60
2019-04-30T03:24:15.091Z,6.15
2019-04-30T03:26:43.931Z,6.12
2019-04-30T03:29:12.783Z,5.97
2019-04-30T03:31:44.984Z,5.37
2019-04-30T03:34:18.044Z,5.92
2019-04-30T03:36:42.590Z,6.20
2019-04-30T03:39:11.497Z,6.17
2019-04-30T03:41:41.207Z,4.60
2019-04-30T03:44:18.555Z,3.42
2019-04-30T03:46:40.980Z,5.25
2019-04-30T03:49:10.608Z,4.00
2019-04-30T03:51:40.580Z,4.78
2019-04-30T03:54:10.377Z,4.42
2019-04-30T03:56:40.512Z,4.60
2019-04-30T03:59:10.510Z,5.90
2019-04-30T04:01:59.576Z,6.40
2019-04-30T04:04:30.945Z,4.45
2019-04-30T04:07:16.543Z,4.47
2019-04-30T04:09:56.151Z,4.92
2019-04-30T04:12:25.860Z,6.10
2019-04-30T04:14:54.616Z,5.08
2019-04-30T04:17:23.732Z,5.97
2019-04-30T04:19:54.061Z,5.95
2019-04-30T04:22:22.767Z,5.65
2019-04-30T04:24:51.615Z,6.00
2019-04-30T04:27:20.376Z,6.37
2019-04-30T04:29:50.974Z,6.70
2019-04-30T04:32:23.596Z,7.15
2019-04-30T04:34:50.688Z,6.95
2019-04-30T04:37:20.330Z,6.90
2019-04-30T04:39:50.118Z,6.30
2019-04-30T04:42:19.920Z,7.35
2019-04-30T04:44:50.253Z,7.53
2019-04-30T04:47:20.109Z,6.58
2019-04-30T04:49:53.022Z,5.90
2019-04-30T04:52:21.442Z,8.13
2019-04-30T04:54:50.959Z,6.33
2019-04-30T04:57:22.794Z,8.50
2019-04-30T04:59:50.590Z,8.75
2019-04-30T05:02:39.659Z,5.78
2019-04-30T05:05:09.631Z,6.22
2019-04-30T05:07:39.876Z,5.90
2019-04-30T05:10:09.847Z,5.17
2019-04-30T05:12:39.893Z,8.60
2019-04-30T05:15:09.592Z,7.33
2019-04-30T05:17:39.851Z,6.70
2019-04-30T05:20:09.968Z,6.25
2019-04-30T05:22:39.174Z,7.72
2019-04-30T05:25:08.821Z,7.35
2019-04-30T05:27:39.316Z,8.58
2019-04-30T05:30:09.713Z,6.08
2019-04-30T05:32:39.603Z,9.53
2019-04-30T05:35:09.527Z,5.55
2019-04-30T05:37:38.707Z,8.40
2019-04-30T05:40:09.195Z,5.72
2019-04-30T05:42:38.703Z,6.10
2019-04-30T05:45:09.294Z,6.35
2019-04-30T05:47:39.048Z,4.95
2019-04-30T05:50:09.243Z,6.97
2019-04-30T05:52:39.697Z,7.08
2019-04-30T05:55:08.849Z,5.60
2019-04-30T05:57:43.308Z,7.08
2019-04-30T06:00:10.050Z,7.58
2019-04-30T06:02:40.058Z,8.70
2019-04-30T06:05:09.692Z,7.33
2019-04-30T06:07:59.325Z,8.58
2019-04-30T06:10:35.860Z,9.18
2019-04-30T06:13:09.770Z,9.60
2019-04-30T06:15:40.408Z,9.23
2019-04-30T06:18:13.561Z,5.45
2019-04-30T06:20:39.821Z,9.78
2019-04-30T06:23:09.551Z,8.70
2019-04-30T06:25:55.646Z,9.73
2019-04-30T06:28:09.793Z,10.25
2019-04-30T06:30:39.698Z,11.08
2019-04-30T06:33:09.314Z,8.45
2019-04-30T06:35:40.158Z,10.78
2019-04-30T06:38:08.898Z,8.53
2019-04-30T06:40:39.139Z,10.28
2019-04-30T06:43:09.186Z,8.55
2019-04-30T06:45:38.811Z,9.53
2019-04-30T06:48:08.907Z,7.53
2019-04-30T06:50:39.326Z,9.23
2019-04-30T06:53:09.318Z,8.80
2019-04-30T06:55:39.249Z,9.13
2019-04-30T06:58:14.229Z,10.05
2019-04-30T07:00:40.425Z,10.40
2019-04-30T07:03:10.021Z,11.15
2019-04-30T07:05:39.250Z,10.98
2019-04-30T07:08:38.975Z,9.25
2019-04-30T07:11:16.117Z,9.58
2019-04-30T07:13:49.528Z,9.18
2019-04-30T07:16:20.357Z,7.05
2019-04-30T07:18:49.413Z,8.55
2019-04-30T07:21:19.772Z,9.63
2019-04-30T07:23:48.782Z,7.05
2019-04-30T07:26:19.815Z,10.43
2019-04-30T07:28:54.234Z,9.30
2019-04-30T07:31:19.196Z,6.97
2019-04-30T07:33:53.455Z,6.25
2019-04-30T07:36:19.668Z,7.37
2019-04-30T07:38:54.551Z,9.68
2019-04-30T07:41:19.132Z,5.40
2019-04-30T07:43:49.401Z,8.00
2019-04-30T07:46:20.016Z,8.03
2019-04-30T07:48:50.208Z,10.63
2019-04-30T07:51:21.049Z,9.78
2019-04-30T07:53:50.005Z,10.88
2019-04-30T07:56:25.729Z,7.50
2019-04-30T07:58:50.473Z,9.88
2019-04-30T08:01:19.775Z,6.40
2019-04-30T08:03:53.806Z,7.78
2019-04-30T08:06:23.115Z,8.33
2019-04-30T08:08:57.233Z,10.23
2019-04-30T08:11:26.181Z,9.88
2019-04-30T08:13:53.087Z,10.63
2019-04-30T08:16:22.138Z,8.63
2019-04-30T08:18:50.994Z,8.00
2019-04-30T08:21:19.805Z,8.18
2019-04-30T08:23:49.028Z,8.88
2019-04-30T08:26:18.790Z,7.85
2019-04-30T08:28:48.735Z,8.30
2019-04-30T08:31:19.538Z,9.83
2019-04-30T08:33:49.092Z,9.33
2019-04-30T08:36:19.680Z,8.78
2019-04-30T08:38:49.528Z,9.50
2019-04-30T08:41:19.316Z,11.30
2019-04-30T08:43:49.648Z,6.35
2019-04-30T08:46:19.161Z,9.00
2019-04-30T08:48:51.595Z,6.58
2019-04-30T08:51:19.262Z,11.57
2019-04-30T08:53:48.725Z,11.20
2019-04-30T08:56:21.606Z,7.53
2019-04-30T08:58:49.116Z,10.90
2019-04-30T09:01:19.626Z,10.43
2019-04-30T09:03:51.315Z,8.33
2019-04-30T09:06:22.101Z,8.30
2019-04-30T09:08:51.491Z,8.40
2019-04-30T09:11:27.250Z,11.20
2019-04-30T09:13:50.844Z,7.35
2019-04-30T09:16:19.591Z,12.37
2019-04-30T09:18:49.495Z,12.85
2019-04-30T09:21:18.755Z,7.95
2019-04-30T09:23:51.951Z,11.18
2019-04-30T09:26:18.807Z,8.48
2019-04-30T09:28:49.470Z,12.07
2019-04-30T09:31:19.766Z,11.65
2019-04-30T09:33:49.328Z,9.28
2019-04-30T09:36:20.597Z,11.18
2019-04-30T09:38:48.634Z,10.03
2019-04-30T09:41:19.188Z,8.65
2019-04-30T09:43:49.390Z,9.45
2019-04-30T09:46:26.324Z,10.08
2019-04-30T09:48:50.685Z,9.65
2019-04-30T09:51:20.630Z,6.35
2019-04-30T09:53:56.807Z,10.80
2019-04-30T09:56:21.867Z,10.23
2019-04-30T09:58:50.607Z,12.10
2019-04-30T10:01:21.921Z,12.10
2019-04-30T10:03:50.633Z,12.10
2019-04-30T10:06:19.949Z,8.48
2019-04-30T10:08:51.260Z,8.98
2019-04-30T10:11:32.653Z,11.43
2019-04-30T10:14:01.479Z,10.43
2019-04-30T10:16:31.848Z,10.40
2019-04-30T10:19:01.409Z,8.90
2019-04-30T10:21:30.513Z,11.57
2019-04-30T10:24:12.570Z,12.28
2019-04-30T10:26:29.839Z,11.65
2019-04-30T10:29:02.210Z,10.13
2019-04-30T10:31:30.992Z,9.95
2019-04-30T10:33:59.821Z,7.03
2019-04-30T10:36:29.538Z,10.35
2019-04-30T10:38:59.511Z,9.35
2019-04-30T10:41:29.040Z,9.70
2019-04-30T10:43:59.095Z,9.78
2019-04-30T10:46:28.076Z,8.85
2019-04-30T10:48:57.042Z,10.60
2019-04-30T10:51:25.901Z,7.58
2019-04-30T10:53:54.705Z,11.53
2019-04-30T10:56:23.486Z,9.15
2019-04-30T10:58:52.303Z,9.80
2019-04-30T11:01:21.130Z,7.97
2019-04-30T11:03:49.974Z,5.92
2019-04-30T11:06:19.207Z,8.80
2019-04-30T11:08:48.207Z,8.70
2019-04-30T11:11:17.214Z,10.13
2019-04-30T11:13:45.993Z,9.73
2019-04-30T11:16:15.614Z,10.10
2019-04-30T11:18:44.851Z,6.30
2019-04-30T11:21:15.673Z,8.63
2019-04-30T11:23:44.985Z,9.43
2019-04-30T11:26:14.700Z,9.68
2019-04-30T11:28:44.308Z,11.85
2019-04-30T11:31:24.257Z,11.55
2019-04-30T11:33:55.866Z,11.93
2019-04-30T11:36:29.206Z,10.68
2019-04-30T11:38:58.716Z,12.03
2019-04-30T11:41:31.104Z,9.45
2019-04-30T11:43:59.458Z,11.70
2019-04-30T11:46:34.388Z,8.05
2019-04-30T11:49:03.211Z,10.93
2019-04-30T11:51:31.986Z,11.63
2019-04-30T11:54:00.846Z,10.05
2019-04-30T11:56:29.588Z,11.63
2019-04-30T11:58:58.954Z,10.72
2019-04-30T12:01:29.631Z,8.53
2019-04-30T12:03:59.859Z,10.08
2019-04-30T12:06:28.812Z,8.58
2019-04-30T12:08:59.234Z,9.08
2019-04-30T12:11:32.426Z,11.85
2019-04-30T12:14:01.238Z,10.55
2019-04-30T12:16:30.052Z,12.85
2019-04-30T12:19:00.589Z,10.00
2019-04-30T12:21:29.223Z,10.63
2019-04-30T12:23:58.345Z,11.08
2019-04-30T12:26:28.866Z,11.12
2019-04-30T12:28:57.551Z,10.65
2019-04-30T12:31:26.863Z,11.28
2019-04-30T12:33:55.734Z,11.78
2019-04-30T12:36:24.516Z,11.12
2019-04-30T12:38:53.392Z,11.38
2019-04-30T12:41:22.192Z,9.93
2019-04-30T12:43:51.031Z,10.78
2019-04-30T12:46:21.295Z,7.92
2019-04-30T12:48:54.872Z,10.93
2019-04-30T12:51:45.876Z,10.32
2019-04-30T12:54:24.654Z,11.48
2019-04-30T12:57:04.175Z,11.63
2019-04-30T12:59:33.067Z,9.60
2019-04-30T13:02:01.882Z,12.07
2019-04-30T13:04:30.732Z,10.35
2019-04-30T13:07:02.054Z,12.15
2019-04-30T13:09:30.910Z,11.83
2019-04-30T13:12:01.227Z,9.88
2019-04-30T13:14:31.392Z,9.20
2019-04-30T13:17:00.797Z,9.10
2019-04-30T13:19:29.650Z,7.67
2019-04-30T13:22:00.720Z,10.58
2019-04-30T13:24:31.368Z,9.30
2019-04-30T13:27:00.270Z,9.78
2019-04-30T13:29:30.648Z,9.25
2019-04-30T13:31:59.482Z,10.53
2019-04-30T13:34:48.150Z,9.25
2019-04-30T13:37:16.952Z,8.88
2019-04-30T13:39:53.777Z,9.70
2019-04-30T13:42:24.178Z,11.08
2019-04-30T13:44:52.949Z,10.90
2019-04-30T13:47:21.823Z,10.30
2019-04-30T13:49:50.634Z,11.12
2019-04-30T13:52:19.450Z,12.28
2019-04-30T13:54:48.415Z,12.23
2019-04-30T13:57:17.179Z,11.28
2019-04-30T13:59:46.029Z,12.00
2019-04-30T14:02:15.676Z,11.28
2019-04-30T14:05:02.035Z,11.53
2019-04-30T14:07:49.625Z,11.45
2019-04-30T14:10:19.554Z,11.50
2019-04-30T14:12:53.587Z,10.65
2019-04-30T14:15:22.655Z,10.83
2019-04-30T14:17:51.439Z,10.40
2019-04-30T14:20:20.387Z,10.55
2019-04-30T14:22:49.221Z,12.00
2019-04-30T14:25:18.215Z,11.60
2019-04-30T14:27:51.727Z,10.45
2019-04-30T14:30:19.217Z,11.80
2019-04-30T14:32:50.606Z,11.57
2019-04-30T14:35:18.749Z,11.57
2019-04-30T14:37:49.658Z,9.13
2019-04-30T14:40:20.220Z,10.55
2019-04-30T14:42:57.276Z,10.28
2019-04-30T14:45:28.741Z,10.93
2019-04-30T14:48:03.261Z,10.55
2019-04-30T14:50:34.098Z,11.20
2019-04-30T14:53:04.533Z,11.68
2019-04-30T14:55:43.876Z,11.93
2019-04-30T14:58:17.220Z,12.00
2019-04-30T15:00:50.336Z,12.73
2019-04-30T15:03:20.776Z,12.73
2019-04-30T15:05:51.670Z,11.35
2019-04-30T15:08:20.082Z,12.82
2019-04-30T15:10:48.895Z,13.00
2019-04-30T15:13:19.386Z,13.98
2019-04-30T15:15:49.162Z,14.20
2019-04-30T15:18:19.159Z,12.47
2019-04-30T15:20:49.814Z,13.70
2019-04-30T15:23:21.896Z,12.47
2019-04-30T15:25:50.965Z,13.70
2019-04-30T15:28:19.781Z,13.93
2019-04-30T15:30:48.896Z,13.05
2019-04-30T15:33:19.598Z,12.90
2019-04-30T15:35:50.229Z,11.43
2019-04-30T15:38:19.348Z,11.65
2019-04-30T15:40:48.340Z,11.38
2019-04-30T15:43:18.722Z,11.88
2019-04-30T15:45:49.387Z,10.40
2019-04-30T15:48:19.623Z,9.38
2019-04-30T15:50:49.283Z,10.32
2019-04-30T15:53:19.392Z,9.65
2019-04-30T15:55:48.449Z,9.58
2019-04-30T15:58:24.715Z,12.15
2019-04-30T16:00:53.572Z,11.63
2019-04-30T16:03:26.723Z,12.15
2019-04-30T16:05:56.600Z,11.97
2019-04-30T16:08:28.942Z,11.25
2019-04-30T16:11:15.281Z,11.35
2019-04-30T16:13:49.521Z,12.10
2019-04-30T16:16:20.029Z,12.28
2019-04-30T16:18:50.445Z,12.78
2019-04-30T16:21:19.519Z,12.15
2019-04-30T16:23:49.100Z,11.83
2019-04-30T16:26:18.246Z,12.07
2019-04-30T16:28:49.352Z,11.15
2019-04-30T16:31:20.296Z,12.35
2019-04-30T16:33:49.142Z,12.53
2019-04-30T16:36:19.309Z,11.18
2019-04-30T16:38:49.828Z,12.58
2019-04-30T16:41:30.709Z,13.38
2019-04-30T16:43:49.359Z,13.10
2019-04-30T16:46:18.389Z,13.60
2019-04-30T16:48:49.143Z,12.93
2019-04-30T16:51:18.814Z,12.73
2019-04-30T16:53:48.672Z,12.88
2019-04-30T16:56:18.606Z,12.75
2019-04-30T16:59:00.089Z,14.10
2019-04-30T17:01:29.695Z,10.58
2019-04-30T17:04:03.251Z,13.78
2019-04-30T17:06:36.564Z,13.38
2019-04-30T17:09:08.555Z,11.45
2019-04-30T17:11:55.250Z,12.35
2019-04-30T17:14:26.323Z,13.25
2019-04-30T17:16:55.275Z,11.57
2019-04-30T17:19:24.040Z,11.22
2019-04-30T17:21:52.830Z,13.90
2019-04-30T17:24:21.747Z,9.95
2019-04-30T17:26:52.021Z,11.53
2019-04-30T17:29:20.834Z,13.43
2019-04-30T17:31:49.709Z,11.40
2019-04-30T17:34:20.105Z,11.03
2019-04-30T17:36:49.588Z,10.15
2019-04-30T17:39:20.196Z,10.43
2019-04-30T17:41:49.708Z,11.30
2019-04-30T17:44:18.803Z,9.00
2019-04-30T17:46:49.245Z,11.03
2019-04-30T17:49:18.970Z,10.40
2019-04-30T17:51:49.063Z,9.23
2019-04-30T17:54:17.983Z,9.95
2019-04-30T17:56:47.831Z,10.43
2019-04-30T17:59:18.262Z,9.23
2019-04-30T18:01:49.633Z,8.68
2019-04-30T18:04:18.738Z,9.55
2019-04-30T18:06:50.505Z,9.28
2019-04-30T18:09:19.535Z,8.13
2019-04-30T18:11:49.557Z,9.03
2019-04-30T18:14:18.810Z,7.62
2019-04-30T18:16:48.627Z,8.60
2019-04-30T18:19:24.836Z,6.58
2019-04-30T18:21:55.382Z,8.20
2019-04-30T18:24:31.464Z,6.83
2019-04-30T18:27:04.443Z,7.08
2019-04-30T18:29:33.247Z,6.90
2019-04-30T18:32:02.081Z,5.62
2019-04-30T18:34:31.091Z,4.70
2019-04-30T18:36:59.918Z,4.85
2019-04-30T18:39:28.949Z,4.42
2019-04-30T18:41:58.071Z,4.37
2019-04-30T18:44:26.812Z,4.22
2019-04-30T18:46:55.630Z,3.50
2019-04-30T18:49:24.479Z,3.10
2019-04-30T18:51:53.267Z,2.85
2019-04-30T18:54:22.114Z,3.08
2019-04-30T18:56:50.958Z,3.02
2019-04-30T18:59:19.765Z,3.05
2019-04-30T19:01:48.589Z,2.85
2019-04-30T19:04:18.950Z,2.58
2019-04-30T19:06:47.904Z,2.40
2019-04-30T19:09:21.080Z,2.20
2019-04-30T19:11:51.497Z,2.65
2019-04-30T19:14:24.672Z,2.30
2019-04-30T19:17:00.886Z,2.35
2019-04-30T19:19:34.274Z,2.33
2019-04-30T19:22:03.092Z,2.58
2019-04-30T19:24:31.871Z,2.00
2019-04-30T19:27:00.701Z,3.00
2019-04-30T19:29:29.521Z,2.55
2019-04-30T19:31:59.436Z,2.37
2019-04-30T19:34:29.612Z,2.58
2019-04-30T19:36:58.906Z,2.00
2019-04-30T19:39:29.253Z,2.45
2019-04-30T19:41:58.386Z,2.20
2019-04-30T19:44:29.339Z,2.05
2019-04-30T19:46:58.659Z,2.27
2019-04-30T19:49:29.850Z,2.00
2019-04-30T19:52:08.460Z,2.37
2019-04-30T19:54:30.765Z,2.92
2019-04-30T19:56:59.522Z,2.85
2019-04-30T19:59:29.412Z,2.42
2019-04-30T20:01:59.497Z,2.65
2019-04-30T20:04:34.173Z,2.60
2019-04-30T20:06:59.172Z,2.60
2019-04-30T20:09:29.537Z,2.83
2019-04-30T20:11:59.750Z,2.52
2019-04-30T20:14:29.409Z,2.10
2019-04-30T20:16:59.014Z,2.17
2019-04-30T20:19:28.983Z,2.50
2019-04-30T20:21:59.429Z,2.85
2019-04-30T20:24:29.514Z,2.50
2019-04-30T20:27:07.035Z,8.90
2019-04-30T20:29:30.706Z,8.15
2019-04-30T20:32:32.928Z,12.30
2019-04-30T20:34:50.557Z,10.15
2019-04-30T20:37:19.706Z,10.10
2019-04-30T20:39:50.419Z,11.68
2019-04-30T20:42:19.229Z,12.98
2019-04-30T20:44:48.950Z,12.37
2019-04-30T20:47:18.421Z,14.25
2019-04-30T20:49:49.019Z,16.60
2019-04-30T20:52:20.407Z,13.60
2019-04-30T20:54:48.883Z,11.95
2019-04-30T20:57:19.934Z,12.55
2019-04-30T20:59:48.865Z,14.98
2019-04-30T21:02:18.774Z,13.32
2019-04-30T21:04:48.214Z,13.48
2019-04-30T21:07:19.514Z,11.65
2019-04-30T21:09:48.880Z,11.25
2019-04-30T21:12:18.724Z,10.43
2019-04-30T21:14:48.539Z,12.90
2019-04-30T21:17:17.614Z,9.70
2019-04-30T21:19:46.469Z,9.70
2019-04-30T21:22:15.216Z,10.82
2019-04-30T21:24:44.044Z,14.47
2019-04-30T21:27:12.937Z,9.80
2019-04-30T21:29:41.781Z,12.43
2019-04-30T21:32:13.314Z,15.45
2019-04-30T21:34:46.550Z,11.63
2019-04-30T21:37:15.463Z,15.95
2019-04-30T21:39:44.205Z,14.50
2019-04-30T21:42:13.061Z,16.12
2019-04-30T21:44:41.893Z,12.35
2019-04-30T21:47:10.723Z,15.38
2019-04-30T21:49:42.443Z,12.68
2019-04-30T21:52:11.177Z,11.97
2019-04-30T21:54:40.014Z,13.28
2019-04-30T21:57:08.908Z,13.40
2019-04-30T21:59:38.816Z,13.43
2019-04-30T22:02:08.813Z,15.10
2019-04-30T22:04:37.652Z,13.25
2019-04-30T22:07:06.488Z,10.45
2019-04-30T22:09:35.239Z,15.15
2019-04-30T22:12:04.191Z,15.58
2019-04-30T22:14:33.003Z,13.95
2019-04-30T22:17:01.830Z,11.43
2019-04-30T22:19:30.661Z,11.20
2019-04-30T22:21:59.551Z,10.05
2019-04-30T22:24:30.367Z,10.60
2019-04-30T22:26:58.775Z,14.07
2019-04-30T22:29:38.772Z,15.00
2019-04-30T22:31:59.396Z,13.88
2019-04-30T22:34:28.802Z,12.73
2019-04-30T22:36:58.668Z,14.93
2019-04-30T22:39:29.915Z,16.20
2019-04-30T22:42:01.022Z,10.05
2019-04-30T22:44:29.867Z,11.95
2019-04-30T22:47:00.659Z,16.05
2019-04-30T22:49:29.214Z,11.20
2019-04-30T22:51:58.026Z,8.93
2019-04-30T22:54:26.828Z,14.78
2019-04-30T22:56:55.679Z,13.85
2019-04-30T22:59:24.372Z,12.00
2019-04-30T23:02:11.272Z,12.50
2019-04-30T23:04:41.690Z,11.18
2019-04-30T23:07:10.428Z,11.57
2019-04-30T23:09:39.314Z,10.38
2019-04-30T23:12:08.136Z,11.08
2019-04-30T23:14:36.956Z,15.50
2019-04-30T23:17:06.209Z,13.35
2019-04-30T23:19:35.020Z,14.53
2019-04-30T23:22:04.487Z,13.03
2019-04-30T23:24:33.327Z,9.05
2019-04-30T23:27:02.164Z,13.75
2019-04-30T23:29:30.902Z,15.15
2019-04-30T23:31:59.750Z,14.35
2019-04-30T23:34:28.489Z,12.20
2019-04-30T23:36:57.320Z,11.80
2019-04-30T23:39:26.292Z,8.73
2019-04-30T23:41:55.323Z,9.05
2019-04-30T23:44:24.137Z,13.15
2019-04-30T23:46:53.056Z,13.15
2019-04-30T23:49:21.935Z,9.98
2019-04-30T23:51:50.775Z,12.55
2019-04-30T23:54:21.714Z,12.58
2019-04-30T23:56:50.616Z,11.90
2019-04-30T23:59:19.402Z,12.50
